Time;durP1;ratioP1;P1;durP2;ratioP2;P2;SDS_P1;SDS_P2;PMS_P1;PMS_P2;Temp;Humidity;BMP_temperature;BMP_pressure;BME280_temperature;BME280_humidity;BME280_pressure;Samples;Min_cycle;Max_cycle;Signal;HPM_P1;HPM_P2
2023/05/08 00:00:19;;;;;;;16.38;13.18;;;12.10;99.90;;;;;;4958680;28;89157;-29
2023/05/08 00:02:45;;;;;;;13.90;12.32;;;12.00;99.90;;;;;;4959308;28;88379;-31
2023/05/08 00:05:10;;;;;;;14.65;12.60;;;12.10;99.90;;;;;;4958891;28;89831;-35
2023/05/08 00:07:36;;;;;;;20.90;11.15;;;12.00;99.90;;;;;;4959483;28;90222;-32
2023/05/08 00:10:03;;;;;;;20.27;14.38;;;12.00;99.90;;;;;;4957539;28;90257;-33
2023/05/08 00:12:29;;;;;;;17.08;12.02;;;12.00;99.90;;;;;;4957893;28;89783;-35
2023/05/08 00:14:55;;;;;;;14.85;10.93;;;12.00;99.90;;;;;;4945684;28;89318;-33
2023/05/08 00:17:21;;;;;;;19.27;12.68;;;12.00;99.90;;;;;;4939850;28;90237;-33
2023/05/08 00:19:47;;;;;;;14.25;11.93;;;12.00;99.90;;;;;;4966288;28;89727;-32
2023/05/08 00:22:12;;;;;;;16.75;12.48;;;12.00;99.90;;;;;;4939348;28;88236;-32
2023/05/08 00:24:38;;;;;;;19.48;13.48;;;11.90;99.90;;;;;;4945542;28;89186;-30
2023/05/08 00:27:04;;;;;;;18.75;12.98;;;11.90;99.90;;;;;;4948250;28;90343;-30
2023/05/08 00:29:29;;;;;;;13.73;11.82;;;11.90;99.90;;;;;;4940577;28;89240;-35
2023/05/08 00:31:55;;;;;;;16.80;11.60;;;11.90;99.90;;;;;;4942076;28;88730;-33
2023/05/08 00:34:21;;;;;;;14.23;12.73;;;11.90;99.90;;;;;;4946128;28;89395;-32
2023/05/08 00:36:46;;;;;;;20.17;13.50;;;11.90;99.90;;;;;;4948692;28;90220;-31
2023/05/08 00:39:12;;;;;;;15.50;11.32;;;11.80;99.90;;;;;;4945775;28;89322;-31
2023/05/08 00:41:38;;;;;;;16.75;12.27;;;11.80;99.90;;;;;;4951238;28;89357;-34
2023/05/08 00:44:03;;;;;;;16.35;13.25;;;11.70;99.90;;;;;;4950294;28;88987;-30
2023/05/08 00:46:29;;;;;;;16.83;12.80;;;11.70;99.90;;;;;;4961476;28;90585;-34
2023/05/08 00:48:55;;;;;;;13.05;11.02;;;11.80;99.90;;;;;;4947077;28;90260;-31
2023/05/08 00:51:21;;;;;;;12.70;10.32;;;11.80;99.90;;;;;;4955288;28;88328;-31
2023/05/08 00:53:47;;;;;;;14.88;10.90;;;11.80;99.90;;;;;;4950190;28;89185;-32
2023/05/08 00:56:15;;;;;;;14.35;11.75;;;11.80;99.90;;;;;;4961096;28;92261;-33
2023/05/08 00:58:42;;;;;;;13.68;10.73;;;11.70;99.90;;;;;;4959465;28;89531;-33
2023/05/08 01:01:08;;;;;;;21.05;13.82;;;11.80;99.90;;;;;;4959938;28;87917;-35
2023/05/08 01:03:35;;;;;;;14.77;11.38;;;11.80;99.90;;;;;;4960568;28;89145;-31
2023/05/08 01:06:05;;;;;;;17.80;13.27;;;11.70;99.90;;;;;;4961583;28;89962;-35
2023/05/08 01:08:31;;;;;;;17.52;13.43;;;11.70;99.90;;;;;;4958328;28;89703;-31
2023/05/08 01:11:50;;;;;;;16.80;13.45;;;11.60;99.90;;;;;;4961021;28;87650;-35
2023/05/08 01:14:20;;;;;;;15.63;12.23;;;11.70;99.90;;;;;;4899895;28;87672;-31
2023/05/08 01:17:08;;;;;;;15.23;12.25;;;11.50;99.90;;;;;;4955973;28;90307;-34
2023/05/08 01:20:00;;;;;;;16.83;12.88;;;11.60;99.90;;;;;;4974276;28;89799;-33
2023/05/08 01:22:55;;;;;;;15.65;11.40;;;11.60;99.90;;;;;;4973908;28;87629;-32
2023/05/08 01:25:39;;;;;;;14.98;12.45;;;11.60;99.90;;;;;;4972052;28;89215;-31
2023/05/08 01:28:29;;;;;;;14.90;12.30;;;11.60;99.90;;;;;;4949319;28;90223;-31
2023/05/08 01:31:13;;;;;;;17.90;12.25;;;11.50;99.90;;;;;;4948774;28;89887;-34
2023/05/08 01:34:00;;;;;;;14.35;11.05;;;11.60;99.90;;;;;;4961638;28;89391;-34
2023/05/08 01:36:52;;;;;;;14.20;11.77;;;11.70;99.90;;;;;;4951152;28;89006;-31
2023/05/08 01:39:42;;;;;;;17.17;13.10;;;11.60;99.90;;;;;;4966614;28;92291;-35
2023/05/08 01:42:27;;;;;;;14.77;11.73;;;11.60;99.90;;;;;;4964365;28;89658;-33
2023/05/08 01:45:21;;;;;;;18.45;13.07;;;11.50;99.90;;;;;;4949536;28;88012;-33
2023/05/08 01:47:52;;;;;;;16.10;11.75;;;11.50;99.90;;;;;;4939837;28;87968;-32
2023/05/08 01:50:24;;;;;;;16.13;12.27;;;11.50;99.90;;;;;;4954726;28;90382;-31
2023/05/08 01:52:59;;;;;;;17.98;12.75;;;11.50;99.90;;;;;;4941905;28;90707;-32
2023/05/08 01:55:35;;;;;;;15.02;11.57;;;11.50;99.90;;;;;;4954456;28;87562;-35
2023/05/08 01:58:06;;;;;;;14.75;11.80;;;11.50;99.90;;;;;;4960527;28;88982;-32
2023/05/08 02:00:31;;;;;;;15.27;11.93;;;11.40;99.90;;;;;;4959493;28;91102;-30
2023/05/08 02:02:58;;;;;;;15.25;13.50;;;11.40;99.90;;;;;;4961507;28;89854;-32
2023/05/08 02:05:25;;;;;;;13.85;10.38;;;11.40;99.90;;;;;;4944058;28;88532;-31
2023/05/08 02:07:51;;;;;;;13.55;12.00;;;11.40;99.90;;;;;;4951752;28;89986;-29
2023/05/08 02:10:18;;;;;;;19.60;12.68;;;11.30;99.90;;;;;;4944243;28;89370;-31
2023/05/08 02:12:47;;;;;;;18.85;13.65;;;11.30;99.90;;;;;;4952352;28;90941;-31
2023/05/08 02:15:13;;;;;;;;;;;11.20;99.90;;;;;;4959819;28;88824;-31
2023/05/08 02:17:41;;;;;;;14.50;11.63;;;11.20;99.90;;;;;;4963485;28;88681;-32
2023/05/08 02:20:07;;;;;;;14.18;12.55;;;11.10;99.90;;;;;;4972495;28;90309;-31
2023/05/08 02:22:34;;;;;;;16.27;11.15;;;11.10;99.90;;;;;;4960637;28;89725;-29
2023/05/08 02:25:00;;;;;;;14.45;11.88;;;11.10;99.90;;;;;;4960679;28;88562;-30
2023/05/08 02:27:28;;;;;;;16.63;11.40;;;11.00;99.90;;;;;;4959147;28;89493;-30
2023/05/08 02:29:55;;;;;;;17.93;11.80;;;10.90;99.90;;;;;;4960800;28;89836;-31
2023/05/08 02:32:23;;;;;;;16.30;12.82;;;10.90;99.90;;;;;;4957637;28;89599;-31
2023/05/08 02:34:51;;;;;;;16.10;12.43;;;10.90;99.90;;;;;;4968818;28;89669;-34
2023/05/08 02:37:19;;;;;;;16.35;11.43;;;10.90;99.90;;;;;;4963502;28;90210;-32
2023/05/08 02:39:46;;;;;;;15.00;11.00;;;10.90;99.90;;;;;;4969500;28;90207;-33
2023/05/08 02:42:11;;;;;;;18.13;12.07;;;10.90;99.90;;;;;;4973018;28;89924;-31
2023/05/08 02:44:37;;;;;;;18.13;12.50;;;10.80;99.90;;;;;;4968643;28;89492;-30
2023/05/08 02:47:26;;;;;;;13.82;12.25;;;10.70;99.90;;;;;;4959002;28;88252;-32
2023/05/08 02:50:04;;;;;;;15.40;10.85;;;10.70;99.90;;;;;;4958485;28;90670;-32
2023/05/08 02:52:44;;;;;;;12.00;10.13;;;10.70;99.90;;;;;;4949568;28;90115;-30
2023/05/08 02:55:33;;;;;;;18.35;12.63;;;10.70;99.90;;;;;;4959546;28;90438;-33
2023/05/08 02:58:05;;;;;;;13.88;11.95;;;10.70;99.90;;;;;;4952621;28;87925;-32
2023/05/08 03:00:36;;;;;;;16.15;12.23;;;10.70;99.90;;;;;;4941213;28;90047;-31
2023/05/08 03:03:12;;;;;;;15.82;11.38;;;10.70;99.90;;;;;;4949725;28;90903;-32
2023/05/08 03:05:41;;;;;;;16.02;11.43;;;10.60;99.90;;;;;;4940817;28;90096;-35
2023/05/08 03:08:14;;;;;;;16.08;11.57;;;10.60;99.90;;;;;;4940878;28;89286;-34
2023/05/08 03:10:42;;;;;;;17.67;12.85;;;10.50;99.90;;;;;;4939781;28;90403;-32
2023/05/08 03:13:09;;;;;;;19.88;10.93;;;10.40;99.90;;;;;;4941056;28;89820;-30
2023/05/08 03:15:42;;;;;;;15.00;10.60;;;10.30;99.90;;;;;;4948249;28;88253;-32
2023/05/08 03:18:12;;;;;;;16.60;12.35;;;10.30;99.90;;;;;;4949492;28;88221;-31
2023/05/08 03:20:42;;;;;;;16.73;12.15;;;10.30;99.90;;;;;;4959409;28;90557;-29
2023/05/08 03:23:09;;;;;;;14.18;12.48;;;10.30;99.90;;;;;;4955092;28;90188;-32
2023/05/08 03:25:38;;;;;;;17.33;12.37;;;10.30;99.90;;;;;;4957023;28;87649;-31
2023/05/08 03:28:06;;;;;;;17.30;12.13;;;10.30;99.90;;;;;;4954978;28;88616;-34
2023/05/08 03:30:36;;;;;;;18.40;14.52;;;10.20;99.90;;;;;;4966602;28;90401;-34
2023/05/08 03:33:04;;;;;;;15.27;12.07;;;10.20;99.90;;;;;;4958344;28;89538;-30
2023/05/08 03:35:30;;;;;;;17.40;13.82;;;10.20;99.90;;;;;;4955510;28;88995;-30
2023/05/08 03:37:57;;;;;;;15.57;11.88;;;10.10;99.90;;;;;;4956334;28;87893;-31
2023/05/08 03:40:23;;;;;;;15.75;12.93;;;10.10;99.90;;;;;;4957099;28;90497;-35
2023/05/08 03:42:49;;;;;;;16.23;12.85;;;10.10;99.90;;;;;;4966639;28;88328;-31
2023/05/08 03:45:16;;;;;;;17.92;11.88;;;10.10;99.90;;;;;;4953884;28;88863;-31
2023/05/08 03:47:42;;;;;;;16.13;14.40;;;10.10;99.90;;;;;;4957155;28;88361;-31
2023/05/08 03:50:08;;;;;;;18.77;12.20;;;10.10;99.90;;;;;;4954341;28;91402;-31
2023/05/08 03:52:34;;;;;;;16.08;12.70;;;10.20;99.90;;;;;;4959376;28;89500;-30
2023/05/08 03:55:00;;;;;;;18.25;14.13;;;10.20;99.90;;;;;;4957000;28;88172;-31
2023/05/08 03:57:49;;;;;;;17.98;13.43;;;10.20;99.90;;;;;;4954900;28;89402;-30
2023/05/08 04:00:27;;;;;;;18.95;12.50;;;10.20;99.90;;;;;;4952041;28;90265;-34
2023/05/08 04:03:09;;;;;;;12.38;11.05;;;10.20;99.90;;;;;;4958638;28;88736;-29
2023/05/08 04:05:42;;;;;;;15.52;12.05;;;10.10;99.90;;;;;;4959173;28;90325;-32
2023/05/08 04:08:28;;;;;;;16.83;11.88;;;10.10;99.90;;;;;;4959703;28;88552;-31
2023/05/08 04:11:06;;;;;;;16.10;12.52;;;10.10;99.90;;;;;;5008509;22;89922;-30
2023/05/08 04:13:35;;;;;;;;;;;10.10;99.90;;;;;;4960854;28;89709;-30
2023/05/08 04:16:29;;;;;;;16.42;11.77;;;10.10;99.90;;;;;;4964865;28;87646;-31
2023/05/08 04:19:00;;;;;;;16.80;13.20;;;10.10;99.90;;;;;;4944329;28;90057;-31
2023/05/08 04:21:27;;;;;;;15.32;11.45;;;10.10;99.90;;;;;;4958186;28;90591;-30
2023/05/08 04:23:55;;;;;;;13.95;11.82;;;10.10;99.90;;;;;;4945225;28;89730;-31
2023/05/08 04:26:21;;;;;;;13.88;12.38;;;10.10;99.90;;;;;;4948925;28;90096;-35
2023/05/08 04:28:47;;;;;;;15.23;12.32;;;10.00;99.90;;;;;;4946115;28;89548;-30
2023/05/08 04:31:15;;;;;;;14.15;11.98;;;10.00;99.90;;;;;;4948207;28;89831;-31
2023/05/08 04:33:43;;;;;;;18.05;13.77;;;10.00;99.90;;;;;;4946370;28;88464;-33
2023/05/08 04:36:13;;;;;;;19.52;13.50;;;10.00;99.90;;;;;;4950904;28;87547;-30
2023/05/08 04:38:39;;;;;;;13.65;11.57;;;10.00;99.90;;;;;;4948026;28;89090;-28
2023/05/08 04:41:05;;;;;;;14.60;12.80;;;10.10;99.90;;;;;;4947041;28;90300;-32
2023/05/08 04:43:31;;;;;;;14.73;10.85;;;10.10;99.90;;;;;;4948300;28;88724;-33
2023/05/08 04:45:57;;;;;;;14.13;11.20;;;10.10;99.90;;;;;;4962480;28;90218;-31
2023/05/08 04:48:23;;;;;;;15.35;12.48;;;10.10;99.90;;;;;;4951798;28;89252;-30
2023/05/08 04:50:49;;;;;;;16.88;14.13;;;10.10;99.90;;;;;;4947443;28;90667;-32
2023/05/08 04:53:15;;;;;;;16.85;12.65;;;10.10;99.90;;;;;;4947815;28;89401;-32
2023/05/08 04:55:40;;;;;;;18.38;13.77;;;10.10;99.90;;;;;;4961420;28;89658;-34
2023/05/08 04:58:06;;;;;;;15.25;11.00;;;10.10;99.90;;;;;;4962803;28;89742;-35
2023/05/08 05:00:33;;;;;;;14.98;10.35;;;10.10;99.90;;;;;;4957910;28;90294;-30
2023/05/08 05:02:58;;;;;;;16.98;12.32;;;10.10;99.90;;;;;;4952235;28;88533;-34
2023/05/08 05:05:24;;;;;;;12.52;10.80;;;10.10;99.90;;;;;;4948447;28;89670;-34
2023/05/08 05:07:50;;;;;;;17.48;12.10;;;10.10;99.90;;;;;;4958439;28;89485;-35
2023/05/08 05:10:15;;;;;;;13.10;10.90;;;10.10;99.90;;;;;;4945401;28;90486;-30
2023/05/08 05:12:41;;;;;;;12.82;10.93;;;10.10;99.90;;;;;;4942212;28;89895;-29
2023/05/08 05:15:07;;;;;;;15.60;13.55;;;10.20;99.90;;;;;;4945038;28;89543;-34
2023/05/08 05:17:33;;;;;;;13.55;10.57;;;10.20;99.90;;;;;;4942670;28;87953;-33
2023/05/08 05:19:59;;;;;;;14.63;9.73;;;10.10;99.90;;;;;;4944360;28;90423;-35
2023/05/08 05:22:25;;;;;;;14.65;11.13;;;10.10;99.90;;;;;;4946168;28;89845;-32
2023/05/08 05:24:50;;;;;;;18.25;10.73;;;10.20;99.90;;;;;;4947644;28;89284;-30
2023/05/08 05:27:16;;;;;;;15.00;11.55;;;10.20;99.90;;;;;;4944715;28;89001;-31
2023/05/08 05:29:42;;;;;;;15.80;12.15;;;10.20;99.90;;;;;;4947298;28;88701;-34
2023/05/08 05:32:09;;;;;;;16.45;11.77;;;10.30;99.90;;;;;;4944857;28;89664;-34
2023/05/08 05:34:35;;;;;;;15.18;12.45;;;10.40;99.90;;;;;;4963863;28;89755;-31
2023/05/08 05:37:00;;;;;;;15.88;12.23;;;10.70;99.90;;;;;;4950598;28;89033;-34
2023/05/08 05:39:26;;;;;;;16.13;11.75;;;10.70;99.90;;;;;;4951027;28;90557;-30
2023/05/08 05:41:51;;;;;;;15.07;10.82;;;10.90;99.90;;;;;;4945980;28;89766;-32
2023/05/08 05:44:17;;;;;;;16.80;12.80;;;11.10;99.90;;;;;;4966585;28;88824;-33
2023/05/08 05:46:43;;;;;;;15.32;11.05;;;11.30;99.90;;;;;;4957229;28;88267;-31
2023/05/08 05:49:08;;;;;;;13.85;11.25;;;11.40;99.90;;;;;;4957614;28;89987;-32
2023/05/08 05:51:34;;;;;;;15.18;13.18;;;11.50;99.90;;;;;;4953411;28;89599;-32
2023/05/08 05:53:59;;;;;;;15.82;11.85;;;11.70;99.90;;;;;;4960884;28;89078;-34
2023/05/08 05:56:25;;;;;;;15.10;10.68;;;11.70;99.90;;;;;;4961000;28;88203;-31
2023/05/08 05:58:50;;;;;;;15.65;10.27;;;11.80;99.90;;;;;;4963730;28;90431;-32
2023/05/08 06:01:16;;;;;;;14.25;10.90;;;11.60;99.90;;;;;;4958206;28;89637;-32
2023/05/08 06:03:42;;;;;;;15.65;12.73;;;11.60;99.90;;;;;;4974081;28;88763;-31
2023/05/08 06:06:08;;;;;;;12.00;9.75;;;11.70;99.90;;;;;;4980355;28;90700;-30
2023/05/08 06:08:34;;;;;;;18.25;13.65;;;11.80;99.90;;;;;;4981044;28;89912;-33
2023/05/08 06:11:00;;;;;;;19.33;12.07;;;12.00;99.90;;;;;;4979081;28;89916;-34
2023/05/08 06:13:25;;;;;;;16.83;12.70;;;12.10;99.90;;;;;;4979660;28;87887;-33
2023/05/08 06:15:55;;;;;;;15.27;11.50;;;12.30;99.90;;;;;;4979688;28;88221;-32
2023/05/08 06:18:21;;;;;;;14.02;12.20;;;12.40;99.90;;;;;;4978575;28;90460;-35
2023/05/08 06:20:46;;;;;;;14.38;11.23;;;12.60;99.90;;;;;;4979808;28;90044;-30
2023/05/08 06:23:12;;;;;;;14.27;11.55;;;12.80;99.90;;;;;;4978426;28;89532;-33
2023/05/08 06:25:37;;;;;;;14.73;12.07;;;13.00;99.90;;;;;;4978946;28;88465;-32
2023/05/08 06:28:05;;;;;;;15.48;11.50;;;13.00;99.90;;;;;;4977882;28;89846;-32
2023/05/08 06:30:31;;;;;;;17.23;12.70;;;13.20;99.90;;;;;;4979018;28;89298;-31
2023/05/08 06:32:56;;;;;;;14.35;11.30;;;13.60;99.90;;;;;;4978059;28;89173;-33
2023/05/08 06:35:22;;;;;;;12.70;11.18;;;13.70;99.90;;;;;;4973113;28;89088;-32
2023/05/08 06:37:47;;;;;;;13.57;12.13;;;13.80;99.90;;;;;;4965348;28;90305;-30
2023/05/08 06:40:13;;;;;;;17.63;11.88;;;13.90;99.90;;;;;;4966770;28;88968;-29
2023/05/08 06:42:39;;;;;;;12.68;11.35;;;14.10;99.90;;;;;;4966927;28;90482;-30
2023/05/08 06:45:06;;;;;;;12.70;11.13;;;14.10;99.90;;;;;;4972418;28;87654;-33
2023/05/08 06:47:32;;;;;;;15.18;11.90;;;13.80;99.90;;;;;;4964145;28;89825;-33
2023/05/08 06:49:58;;;;;;;15.73;13.35;;;13.90;99.90;;;;;;4976223;28;90266;-34
2023/05/08 06:52:24;;;;;;;14.95;12.65;;;13.90;99.90;;;;;;4977951;28;89786;-35
2023/05/08 06:54:50;;;;;;;15.02;9.90;;;13.90;99.90;;;;;;4966881;28;89537;-31
2023/05/08 06:57:16;;;;;;;17.05;13.05;;;14.00;99.90;;;;;;4968745;28;90231;-33
2023/05/08 06:59:41;;;;;;;13.73;12.23;;;14.10;99.90;;;;;;4964169;28;89172;-32
2023/05/08 07:02:08;;;;;;;15.25;12.35;;;14.10;99.90;;;;;;4946711;28;88561;-31
2023/05/08 07:04:35;;;;;;;12.38;10.98;;;14.10;99.90;;;;;;4959185;28;87778;-33
2023/05/08 07:07:01;;;;;;;17.40;12.70;;;14.10;99.90;;;;;;4959265;28;90166;-35
2023/05/08 07:09:26;;;;;;;14.40;12.88;;;14.20;99.90;;;;;;4958876;28;90160;-33
2023/05/08 07:11:52;;;;;;;13.63;11.77;;;14.30;99.90;;;;;;4958536;28;89082;-33
2023/05/08 07:14:17;;;;;;;16.02;12.55;;;14.40;99.90;;;;;;4959088;28;87706;-31
2023/05/08 07:16:43;;;;;;;12.52;11.07;;;14.40;99.90;;;;;;4957672;28;89247;-31
2023/05/08 07:19:09;;;;;;;15.23;13.38;;;14.50;99.90;;;;;;4973029;28;90001;-31
2023/05/08 07:21:34;;;;;;;13.02;11.68;;;14.50;99.90;;;;;;4959044;28;88841;-32
2023/05/08 07:24:00;;;;;;;13.15;11.05;;;14.50;99.90;;;;;;4959773;28;88441;-34
2023/05/08 07:26:26;;;;;;;14.32;12.93;;;14.40;99.90;;;;;;4939935;28;90538;-32
2023/05/08 07:28:53;;;;;;;12.50;11.27;;;14.30;99.90;;;;;;4952579;28;89422;-30
2023/05/08 07:31:19;;;;;;;14.63;12.38;;;14.60;99.90;;;;;;4959541;28;87563;-32
2023/05/08 07:33:45;;;;;;;14.27;12.50;;;14.90;99.90;;;;;;4958191;28;89549;-33
2023/05/08 07:36:11;;;;;;;14.20;11.98;;;15.00;99.90;;;;;;4956741;28;91551;-32
2023/05/08 07:38:37;;;;;;;14.50;12.43;;;15.40;99.90;;;;;;4958554;28;89317;-30
2023/05/08 07:41:04;;;;;;;17.02;12.60;;;15.60;99.90;;;;;;4957605;28;89938;-31
2023/05/08 07:43:30;;;;;;;15.60;12.65;;;15.90;99.90;;;;;;4958180;28;90410;-32
2023/05/08 07:45:56;;;;;;;15.00;12.77;;;16.30;99.90;;;;;;4955796;28;90192;-30
2023/05/08 07:48:21;;;;;;;14.35;12.40;;;16.20;99.90;;;;;;4958954;28;90390;-31
2023/05/08 07:50:51;;;;;;;13.95;12.57;;;16.60;99.90;;;;;;4965481;28;89437;-34
2023/05/08 07:53:16;;;;;;;14.38;12.95;;;16.50;99.90;;;;;;4968116;28;88458;-35
2023/05/08 07:55:42;;;;;;;14.57;13.05;;;16.80;99.90;;;;;;4958698;28;90296;-33
2023/05/08 07:58:08;;;;;;;14.80;13.38;;;16.70;99.90;;;;;;4965402;28;89104;-30
2023/05/08 08:00:35;;;;;;;15.20;13.52;;;17.00;99.90;;;;;;4952166;28;89003;-30
2023/05/08 08:03:01;;;;;;;19.48;13.73;;;17.30;99.90;;;;;;4940472;28;87714;-31
2023/05/08 08:05:27;;;;;;;15.80;13.30;;;17.10;99.90;;;;;;4952316;28;90462;-31
2023/05/08 08:07:53;;;;;;;14.38;12.57;;;17.30;99.90;;;;;;4939390;28;89134;-34
2023/05/08 08:10:18;;;;;;;15.98;14.35;;;17.30;99.90;;;;;;4941672;28;88181;-35
2023/05/08 08:12:44;;;;;;;14.63;13.27;;;17.40;99.90;;;;;;4959002;28;89304;-33
2023/05/08 08:15:10;;;;;;;15.43;13.63;;;17.50;99.90;;;;;;4950496;28;89739;-31
2023/05/08 08:17:36;;;;;;;15.57;13.82;;;17.70;99.90;;;;;;4959606;28;89496;-33
2023/05/08 08:20:02;;;;;;;17.75;15.98;;;17.80;99.90;;;;;;4967079;28;90817;-34
2023/05/08 08:22:28;;;;;;;17.50;14.32;;;18.00;99.90;;;;;;4953226;28;88448;-33
2023/05/08 08:24:56;;;;;;;17.40;15.77;;;18.00;99.90;;;;;;4945278;28;92029;-31
2023/05/08 08:27:22;;;;;;;19.40;17.50;;;18.00;99.90;;;;;;4947989;28;90678;-34
2023/05/08 08:29:48;;;;;;;16.90;15.18;;;18.20;99.90;;;;;;4958521;28;88070;-34
2023/05/08 08:32:14;;;;;;;16.80;15.18;;;18.50;99.90;;;;;;4948995;28;87657;-31
2023/05/08 08:34:39;;;;;;;15.82;14.18;;;18.60;99.90;;;;;;4948042;28;90288;-33
2023/05/08 08:37:05;;;;;;;21.90;15.30;;;18.60;99.90;;;;;;4942445;28;88936;-32
2023/05/08 08:39:34;;;;;;;16.20;14.70;;;18.80;99.90;;;;;;4958687;28;89755;-33
2023/05/08 08:42:00;;;;;;;17.50;15.32;;;18.80;99.90;;;;;;4957587;28;90265;-33
2023/05/08 08:44:26;;;;;;;18.33;16.35;;;18.90;99.90;;;;;;4957651;28;90186;-33
2023/05/08 08:46:52;;;;;;;17.50;15.65;;;18.90;99.90;;;;;;4958494;28;91376;-32
2023/05/08 08:49:24;;;;;;;17.45;14.27;;;18.70;99.90;;;;;;4958393;28;90062;-32
2023/05/08 08:51:53;;;;;;;18.60;16.63;;;19.10;99.90;;;;;;4948030;28;87891;-31
2023/05/08 08:54:32;;;;;;;16.70;15.15;;;19.00;99.90;;;;;;4951857;28;89908;-32
2023/05/08 08:57:03;;;;;;;17.98;16.08;;;19.20;99.90;;;;;;4939491;28;90065;-31
2023/05/08 08:59:30;;;;;;;17.13;14.73;;;18.90;99.90;;;;;;4939471;28;90030;-34
2023/05/08 09:01:59;;;;;;;17.30;15.70;;;19.00;99.90;;;;;;4942384;28;90267;-32
2023/05/08 09:04:26;;;;;;;15.80;14.23;;;19.40;99.90;;;;;;4953088;28;89957;-32
2023/05/08 09:06:53;;;;;;;16.92;14.70;;;19.80;99.90;;;;;;4943033;28;89315;-34
2023/05/08 09:09:18;;;;;;;17.98;16.27;;;19.90;99.90;;;;;;4950942;28;88497;-32
2023/05/08 09:11:45;;;;;;;15.48;14.07;;;19.70;99.90;;;;;;4948603;28;89460;-32
2023/05/08 09:14:11;;;;;;;16.95;15.02;;;19.50;96.60;;;;;;4953418;28;90099;-33
2023/05/08 09:16:36;;;;;;;18.20;15.23;;;19.60;97.60;;;;;;4954951;28;89819;-32
2023/05/08 09:19:03;;;;;;;15.98;14.38;;;19.40;99.90;;;;;;4959112;28;89455;-32
2023/05/08 09:21:29;;;;;;;17.85;16.05;;;19.80;99.90;;;;;;4960444;28;90521;-30
2023/05/08 09:23:59;;;;;;;17.90;16.17;;;19.80;95.50;;;;;;4941800;28;90647;-32
2023/05/08 09:26:36;;;;;;;16.25;14.63;;;19.60;99.90;;;;;;4954338;28;89775;-34
2023/05/08 09:29:16;;;;;;;18.70;16.77;;;19.70;99.90;;;;;;4951443;28;88381;-31
2023/05/08 09:31:44;;;;;;;20.38;15.93;;;19.50;99.90;;;;;;4943103;28;89050;-31
2023/05/08 09:34:11;;;;;;;;;;;19.70;99.90;;;;;;4942368;28;90192;-35
2023/05/08 09:36:39;;;;;;;17.25;15.48;;;19.80;99.90;;;;;;4944348;28;89257;-31
2023/05/08 09:39:11;;;;;;;18.40;16.45;;;20.10;99.90;;;;;;4941966;28;90142;-35
2023/05/08 09:41:37;;;;;;;18.02;16.23;;;19.90;99.90;;;;;;4954198;28;87722;-31
2023/05/08 09:44:04;;;;;;;16.70;14.52;;;20.10;99.90;;;;;;4951259;28;91393;-34
2023/05/08 09:46:32;;;;;;;17.98;16.10;;;20.20;92.70;;;;;;4941333;28;89333;-32
2023/05/08 09:48:59;;;;;;;;;;;20.30;94.60;;;;;;4942330;28;87613;-34
2023/05/08 09:51:27;;;;;;;17.67;16.05;;;20.30;99.90;;;;;;4944142;28;89641;-31
2023/05/08 09:53:54;;;;;;;17.77;15.93;;;20.40;95.10;;;;;;4954157;28;88798;-33
2023/05/08 09:56:36;;;;;;;19.90;17.83;;;20.40;97.10;;;;;;4940905;28;89156;-31
2023/05/08 09:59:05;;;;;;;18.17;16.40;;;20.50;99.90;;;;;;4941630;28;87654;-32
2023/05/08 10:01:35;;;;;;;16.58;15.00;;;20.40;96.10;;;;;;4941156;28;88329;-34
2023/05/08 10:04:02;;;;;;;19.98;17.92;;;20.50;99.90;;;;;;4959523;28;90306;-32
2023/05/08 10:06:28;;;;;;;18.48;15.57;;;20.40;99.90;;;;;;4959100;28;89609;-35
2023/05/08 10:09:13;;;;;;;16.38;14.70;;;20.20;99.90;;;;;;4957236;28;89708;-35
2023/05/08 10:11:40;;;;;;;18.88;17.08;;;20.30;99.90;;;;;;4970475;28;88743;-31
2023/05/08 10:14:07;;;;;;;18.02;16.17;;;20.40;99.10;;;;;;4960643;28;90419;-35
2023/05/08 10:16:42;;;;;;;17.65;15.85;;;20.10;99.90;;;;;;4958495;28;90194;-32
2023/05/08 10:19:13;;;;;;;21.83;17.98;;;20.40;99.00;;;;;;4972920;28;88344;-34
2023/05/08 10:21:45;;;;;;;17.20;15.43;;;20.30;99.90;;;;;;4960286;28;88364;-32
2023/05/08 10:24:25;;;;;;;17.98;16.17;;;20.40;99.90;;;;;;4960552;28;89731;-32
2023/05/08 10:27:03;;;;;;;21.23;19.10;;;20.30;98.90;;;;;;4959930;28;90298;-31
2023/05/08 10:29:36;;;;;;;20.23;17.00;;;20.30;99.90;;;;;;4959538;28;89424;-36
2023/05/08 10:32:04;;;;;;;17.38;15.38;;;20.30;99.90;;;;;;4960025;28;88286;-31
2023/05/08 10:34:31;;;;;;;;;;;20.30;99.90;;;;;;4959875;28;89841;-32
2023/05/08 10:36:57;;;;;;;17.60;15.80;;;20.50;99.90;;;;;;4962624;28;89724;-34
2023/05/08 10:39:24;;;;;;;17.05;15.32;;;20.60;99.90;;;;;;4961700;28;90074;-34
2023/05/08 10:41:50;;;;;;;17.60;15.80;;;20.80;99.90;;;;;;4970709;28;88407;-31
2023/05/08 10:44:17;;;;;;;18.25;16.25;;;21.00;99.90;;;;;;4958930;28;90382;-31
2023/05/08 10:46:59;;;;;;;17.58;15.90;;;21.00;97.00;;;;;;4959880;28;90161;-32
2023/05/08 10:49:44;;;;;;;18.58;16.58;;;21.00;93.60;;;;;;4972629;28;90183;-35
2023/05/08 10:52:43;;;;;;;18.15;16.42;;;20.80;98.10;;;;;;4959163;28;88910;-32
2023/05/08 10:55:20;;;;;;;18.60;16.92;;;20.70;92.10;;;;;;4948058;28;90660;-32
2023/05/08 10:58:02;;;;;;;19.57;17.07;;;21.00;97.70;;;;;;4959593;28;90139;-33
2023/05/08 11:00:51;;;;;;;17.20;15.50;;;21.10;99.90;;;;;;4958840;28;90198;-31
2023/05/08 11:03:23;;;;;;;17.90;14.20;;;21.20;99.90;;;;;;4957933;28;89036;-32
2023/05/08 11:05:50;;;;;;;17.88;16.17;;;21.30;99.90;;;;;;4965046;28;89625;-32
2023/05/08 11:08:18;;;;;;;18.13;16.23;;;21.30;99.90;;;;;;4963622;28;89524;-33
2023/05/08 11:10:58;;;;;;;20.97;18.97;;;21.10;94.20;;;;;;4959044;28;89969;-33
2023/05/08 11:13:39;;;;;;;18.48;16.38;;;21.20;92.70;;;;;;4959125;28;88085;-33
2023/05/08 11:16:06;;;;;;;17.55;15.65;;;21.20;98.50;;;;;;4958215;28;90630;-36
2023/05/08 11:18:32;;;;;;;18.70;16.70;;;21.20;96.50;;;;;;4964669;28;89980;-34
2023/05/08 11:20:59;;;;;;;21.63;16.73;;;21.10;95.20;;;;;;4968364;28;89525;-32
2023/05/08 11:23:26;;;;;;;18.73;16.80;;;21.10;97.00;;;;;;4945700;28;89126;-32
2023/05/08 11:26:00;;;;;;;17.80;15.88;;;21.20;95.70;;;;;;4940138;28;91016;-32
2023/05/08 11:28:26;;;;;;;18.42;16.13;;;21.20;95.80;;;;;;4943820;28;89854;-33
2023/05/08 11:30:55;;;;;;;20.90;16.92;;;21.20;99.90;;;;;;4947663;28;88136;-33
2023/05/08 11:33:22;;;;;;;16.17;14.35;;;21.30;95.00;;;;;;4939987;28;90107;-31
2023/05/08 11:35:59;;;;;;;18.05;16.17;;;21.20;97.30;;;;;;4940328;28;90493;-33
2023/05/08 11:38:34;;;;;;;17.40;15.70;;;21.20;97.40;;;;;;4939283;28;90023;-33
2023/05/08 11:41:20;;;;;;;16.42;14.73;;;21.20;94.90;;;;;;4940297;28;88163;-33
2023/05/08 11:43:58;;;;;;;19.35;17.35;;;21.30;99.90;;;;;;4940442;28;88054;-34
2023/05/08 11:46:29;;;;;;;;;;;21.20;99.90;;;;;;4949340;28;89895;-33
2023/05/08 11:49:01;;;;;;;18.33;16.45;;;21.30;99.90;;;;;;4942897;28;90202;-34
2023/05/08 11:51:34;;;;;;;21.75;15.43;;;21.10;99.90;;;;;;4940054;28;89218;-36
2023/05/08 11:54:00;;;;;;;19.65;16.17;;;21.30;99.90;;;;;;4939837;28;89169;-33
2023/05/08 11:56:26;;;;;;;20.15;18.05;;;21.30;99.90;;;;;;4939264;28;90200;-32
2023/05/08 11:59:05;;;;;;;21.10;18.73;;;21.20;99.90;;;;;;4954513;28;91373;-33
2023/05/08 12:01:31;;;;;;;18.45;16.70;;;21.30;97.30;;;;;;4958277;28;89336;-33
2023/05/08 12:04:05;;;;;;;21.75;17.25;;;21.40;99.90;;;;;;4963705;28;89424;-33
2023/05/08 12:06:32;;;;;;;18.05;16.23;;;21.40;99.90;;;;;;4965011;28;90993;-33
2023/05/08 12:08:59;;;;;;;19.05;15.05;;;21.60;99.90;;;;;;4958211;28;89067;-33
2023/05/08 12:11:25;;;;;;;21.30;19.15;;;21.80;99.90;;;;;;4956832;28;89575;-36
2023/05/08 12:13:52;;;;;;;19.00;17.00;;;21.70;99.90;;;;;;4959445;28;88768;-31
2023/05/08 12:16:17;;;;;;;19.48;17.52;;;21.70;99.90;;;;;;4956844;28;90246;-34
2023/05/08 12:18:43;;;;;;;23.13;17.00;;;21.80;99.90;;;;;;4964048;28;89614;-36
2023/05/08 12:21:10;;;;;;;17.85;16.13;;;21.90;99.90;;;;;;4947228;28;89982;-33
2023/05/08 12:23:37;;;;;;;17.52;15.90;;;21.90;99.90;;;;;;4943864;28;88215;-32
2023/05/08 12:26:03;;;;;;;18.85;16.90;;;21.90;99.90;;;;;;4959252;28;90263;-36
2023/05/08 12:28:31;;;;;;;16.25;14.52;;;21.80;99.90;;;;;;4939094;28;90795;-36
2023/05/08 12:30:57;;;;;;;16.20;13.43;;;21.90;99.90;;;;;;4950852;28;87763;-34
2023/05/08 12:33:23;;;;;;;16.08;14.50;;;22.10;99.90;;;;;;4945673;28;87642;-33
2023/05/08 12:35:49;;;;;;;15.70;13.80;;;22.10;95.50;;;;;;4948757;28;89862;-34
2023/05/08 12:38:15;;;;;;;15.88;14.05;;;22.20;94.90;;;;;;4942659;28;89499;-35